createdAt,value
2018-02-21T00:00:36.433Z,0.72
2018-02-21T00:01:46.182Z,0.7
2018-02-21T00:02:56.232Z,0.68
2018-02-21T00:04:05.688Z,0.7
2018-02-21T00:05:15.436Z,0.7
2018-02-21T00:06:25.437Z,0.72
2018-02-21T00:07:35.438Z,0.67
2018-02-21T00:08:44.653Z,0.74
2018-02-21T00:09:54.139Z,0.72
2018-02-21T00:11:03.898Z,0.7
2018-02-21T00:12:13.629Z,0.64
2018-02-21T00:13:23.368Z,0.67
2018-02-21T00:14:33.392Z,0.63
2018-02-21T00:15:43.436Z,0.59
2018-02-21T00:16:53.429Z,0.51
2018-02-21T00:18:03.211Z,0.53
2018-02-21T00:19:12.424Z,0.48
2018-02-21T00:20:21.888Z,0.44
2018-02-21T00:21:31.373Z,0.35
2018-02-21T00:22:41.655Z,0.41
2018-02-21T00:23:51.657Z,0.43
2018-02-21T00:25:01.648Z,0.45
2018-02-21T00:26:10.844Z,0.45
2018-02-21T00:27:20.626Z,0.49
2018-02-21T00:28:30.384Z,0.51
2018-02-21T00:29:40.384Z,0.49
2018-02-21T00:30:50.124Z,0.43
2018-02-21T00:32:00.132Z,0.49
2018-02-21T00:33:09.337Z,0.48
2018-02-21T00:34:19.091Z,0.43
2018-02-21T00:35:29.103Z,0.44
2018-02-21T00:36:39.121Z,0.37
2018-02-21T00:37:48.860Z,0.37
2018-02-21T00:38:58.610Z,0.33
2018-02-21T00:40:08.737Z,0.31
2018-02-21T00:41:18.752Z,0.33
2018-02-21T00:42:28.247Z,0.34
2018-02-21T00:43:38.281Z,0.38
2018-02-21T00:44:48.028Z,0.3
2018-02-21T00:45:57.769Z,0.4
2018-02-21T00:47:07.303Z,0.26
2018-02-21T00:48:17.318Z,0.25
2018-02-21T00:49:26.548Z,0.3
2018-02-21T00:50:36.300Z,0.23
2018-02-21T00:51:46.075Z,0.3
2018-02-21T00:52:55.549Z,0.26
2018-02-21T00:54:05.352Z,0.23
2018-02-21T00:55:15.101Z,0.33
2018-02-21T00:56:24.853Z,0.31
2018-02-21T00:57:34.592Z,0.44
2018-02-21T00:58:44.324Z,0.37
2018-02-21T00:59:54.336Z,0.41
2018-02-21T01:01:04.412Z,0.41
2018-02-21T01:02:14.445Z,0.38
2018-02-21T01:03:23.921Z,0.37
2018-02-21T01:04:33.974Z,0.38
2018-02-21T01:05:43.717Z,0.31
2018-02-21T01:06:53.474Z,0.37
2018-02-21T01:08:02.962Z,0.31
2018-02-21T01:09:12.440Z,0.3
2018-02-21T01:10:21.652Z,0.33
2018-02-21T01:11:31.395Z,0.31
2018-02-21T01:12:40.876Z,0.23
2018-02-21T01:13:50.086Z,0.28
2018-02-21T01:14:59.573Z,0.22
2018-02-21T01:16:09.595Z,0.31
2018-02-21T01:17:19.096Z,0.17
2018-02-21T01:18:28.376Z,0.2
2018-02-21T01:19:38.115Z,0.16
2018-02-21T01:20:47.588Z,0.13
2018-02-21T01:21:57.586Z,0.15
2018-02-21T01:23:07.411Z,0.28
2018-02-21T01:24:17.438Z,0.13
2018-02-21T01:25:26.918Z,0.15
2018-02-21T01:26:36.686Z,0.33
2018-02-21T01:27:46.441Z,0.19
2018-02-21T01:28:56.469Z,0.23
2018-02-21T01:30:05.965Z,0.22
2018-02-21T01:31:15.442Z,0.13
2018-02-21T01:32:24.974Z,0.15
2018-02-21T01:33:34.860Z,0.15
2018-02-21T01:34:44.336Z,0.1
2018-02-21T01:35:54.357Z,0.15
2018-02-21T01:37:04.110Z,0.15
2018-02-21T01:38:13.596Z,0.28
2018-02-21T01:39:23.368Z,0.25
2018-02-21T01:40:33.095Z,0.22
2018-02-21T01:41:43.184Z,0.26
2018-02-21T01:42:52.979Z,0.4
2018-02-21T01:44:02.446Z,0.4
2018-02-21T01:45:12.238Z,0.4
2018-02-21T01:46:21.714Z,0.31
2018-02-21T01:47:30.653Z,0.37
2018-02-21T01:48:39.868Z,0.4
2018-02-21T01:49:49.360Z,0.43
2018-02-21T01:50:59.437Z,0.35
2018-02-21T01:52:09.452Z,0.28
2018-02-21T01:53:19.190Z,0.3
2018-02-21T01:54:29.223Z,0.28
2018-02-21T01:55:38.760Z,0.33
2018-02-21T01:56:48.514Z,0.22
2018-02-21T01:57:57.990Z,0.26
2018-02-21T01:59:07.482Z,0.26
2018-02-21T02:00:17.503Z,0.17
2018-02-21T02:01:27.505Z,0.23
2018-02-21T02:02:36.971Z,0.22
2018-02-21T02:03:46.975Z,0.16
2018-02-21T02:04:56.978Z,0.19
2018-02-21T02:06:06.728Z,0.16
2018-02-21T02:07:16.483Z,0.26
2018-02-21T02:08:26.237Z,0.31
2018-02-21T02:09:35.714Z,0.31
2018-02-21T02:10:45.461Z,0.31
2018-02-21T02:11:54.663Z,0.38
2018-02-21T02:13:04.456Z,0.34
2018-02-21T02:14:14.193Z,0.34
2018-02-21T02:15:23.660Z,0.38
2018-02-21T02:16:33.175Z,0.45
2018-02-21T02:17:42.668Z,0.33
2018-02-21T02:18:52.670Z,0.34
2018-02-21T02:20:02.425Z,0.25
2018-02-21T02:21:12.430Z,0.17
2018-02-21T02:22:22.439Z,0.17
2018-02-21T02:23:32.177Z,0.13
2018-02-21T02:24:41.382Z,0.19
2018-02-21T02:25:51.167Z,0.13
2018-02-21T02:27:00.377Z,0.19
2018-02-21T02:28:09.856Z,0.15
2018-02-21T02:29:19.854Z,0.13
2018-02-21T02:30:29.865Z,0.19
2018-02-21T02:31:39.400Z,0.13
2018-02-21T02:32:49.139Z,0.1
2018-02-21T02:33:59.135Z,0.1
2018-02-21T02:35:08.936Z,0.1
2018-02-21T02:36:18.968Z,0.08
2018-02-21T02:37:28.695Z,0.1
2018-02-21T02:38:38.157Z,0.12
2018-02-21T02:39:48.174Z,0.16
2018-02-21T02:40:57.638Z,0.17
2018-02-21T02:42:07.104Z,0.22
2018-02-21T02:43:16.576Z,0.26
2018-02-21T02:44:26.356Z,0.31
2018-02-21T02:45:36.430Z,0.3
2018-02-21T02:46:46.165Z,0.34
2018-02-21T02:47:55.907Z,0.35
2018-02-21T02:49:05.366Z,0.38
2018-02-21T02:50:15.363Z,0.45
2018-02-21T02:51:24.831Z,0.49
2018-02-21T02:52:34.834Z,0.67
2018-02-21T02:53:44.590Z,0.67
2018-02-21T02:54:54.317Z,0.6
2018-02-21T02:56:04.055Z,0.68
2018-02-21T02:57:14.103Z,0.71
2018-02-21T02:58:23.835Z,0.68
2018-02-21T02:59:33.557Z,0.74
2018-02-21T03:00:43.278Z,0.82
2018-02-21T03:01:53.000Z,0.88
2018-02-21T03:03:02.717Z,0.8
2018-02-21T03:04:11.907Z,0.84
2018-02-21T03:05:21.647Z,0.86
2018-02-21T03:06:31.096Z,0.92
2018-02-21T03:07:40.830Z,0.9
2018-02-21T03:08:50.840Z,0.93
2018-02-21T03:10:00.556Z,1.04
2018-02-21T03:11:10.279Z,1.06
2018-02-21T03:12:20.270Z,1.16
2018-02-21T03:13:30.253Z,1.13
2018-02-21T03:14:39.443Z,1.24
2018-02-21T03:15:48.636Z,1.25
2018-02-21T03:16:58.354Z,1.25
2018-02-21T03:18:08.087Z,1.34
2018-02-21T03:19:18.125Z,1.29
2018-02-21T03:20:27.842Z,1.32
2018-02-21T03:21:37.565Z,1.34
2018-02-21T03:22:47.591Z,1.42
2018-02-21T03:23:57.571Z,1.42
2018-02-21T03:25:07.293Z,1.35
2018-02-21T03:26:16.741Z,1.42
2018-02-21T03:27:26.197Z,1.53
2018-02-21T03:28:36.183Z,1.53
2018-02-21T03:29:45.695Z,1.52
2018-02-21T03:30:55.424Z,1.53
2018-02-21T03:32:04.888Z,1.57
2018-02-21T03:33:14.875Z,1.5
2018-02-21T03:34:24.326Z,1.57
2018-02-21T03:35:34.049Z,1.6
2018-02-21T03:36:43.505Z,1.6
2018-02-21T03:37:53.251Z,1.67
2018-02-21T03:39:02.565Z,1.67
2018-02-21T03:40:11.895Z,1.65
2018-02-21T03:41:21.631Z,1.65
2018-02-21T03:42:31.615Z,1.61
2018-02-21T03:43:40.801Z,1.7
2018-02-21T03:44:50.525Z,1.71
2018-02-21T03:45:59.984Z,1.7
2018-02-21T03:47:09.702Z,1.64
2018-02-21T03:48:19.420Z,1.77
2018-02-21T03:49:29.404Z,1.67
2018-02-21T03:50:39.412Z,1.77
2018-02-21T03:51:48.879Z,1.81
2018-02-21T03:52:58.332Z,1.88
2018-02-21T03:54:07.815Z,1.75
2018-02-21T03:55:17.765Z,1.79
2018-02-21T03:56:27.218Z,1.89
2018-02-21T03:57:37.208Z,1.86
2018-02-21T03:58:46.394Z,1.82
2018-02-21T03:59:56.110Z,1.88
2018-02-21T04:01:05.876Z,1.74
2018-02-21T04:02:15.633Z,1.85
2018-02-21T04:03:25.616Z,1.88
2018-02-21T04:04:35.335Z,1.72
2018-02-21T04:05:45.052Z,1.74
2018-02-21T04:06:54.508Z,1.72
2018-02-21T04:08:03.693Z,1.74
2018-02-21T04:09:13.681Z,1.74
2018-02-21T04:10:23.708Z,1.82
2018-02-21T04:11:33.441Z,1.82
2018-02-21T04:12:43.135Z,1.81
2018-02-21T04:13:52.854Z,1.77
2018-02-21T04:15:02.588Z,1.85
2018-02-21T04:16:12.311Z,1.89
2018-02-21T04:17:22.303Z,1.86
2018-02-21T04:18:31.225Z,1.92
2018-02-21T04:19:41.223Z,1.95
2018-02-21T04:20:50.689Z,1.88
2018-02-21T04:22:00.700Z,1.82
2018-02-21T04:23:10.432Z,1.9
2018-02-21T04:24:19.620Z,1.88
2018-02-21T04:25:29.628Z,1.93
2018-02-21T04:26:39.354Z,2
2018-02-21T04:27:48.808Z,1.98
2018-02-21T04:28:58.260Z,2
2018-02-21T04:30:07.647Z,1.98
2018-02-21T04:31:17.369Z,2.04
2018-02-21T04:32:26.826Z,1.92
2018-02-21T04:33:36.284Z,2.01
2018-02-21T04:34:45.742Z,2.05
2018-02-21T04:35:55.718Z,1.95
2018-02-21T04:37:04.906Z,2.02
2018-02-21T04:38:14.626Z,1.93
2018-02-21T04:39:24.342Z,2.05
2018-02-21T04:40:33.795Z,2.04
2018-02-21T04:41:43.514Z,2.07
2018-02-21T04:42:53.038Z,2.05
2018-02-21T04:44:02.288Z,2.05
2018-02-21T04:45:12.279Z,2.04
2018-02-21T04:46:21.996Z,2.02
2018-02-21T04:47:31.448Z,2.11
2018-02-21T04:48:41.170Z,1.95
2018-02-21T04:49:50.623Z,1.92
2018-02-21T04:51:00.606Z,1.93
2018-02-21T04:52:10.060Z,2.05
2018-02-21T04:53:19.781Z,1.95
2018-02-21T04:54:29.238Z,1.92
2018-02-21T04:55:38.694Z,2.01
2018-02-21T04:56:48.683Z,1.9
2018-02-21T04:57:58.412Z,1.82
2018-02-21T04:59:07.871Z,2
2018-02-21T05:00:17.860Z,1.89
2018-02-21T05:01:27.847Z,1.81
2018-02-21T05:02:37.568Z,1.77
2018-02-21T05:03:47.286Z,1.71
2018-02-21T05:04:56.739Z,1.7
2018-02-21T05:06:06.190Z,1.63
2018-02-21T05:07:15.917Z,1.6
2018-02-21T05:08:25.898Z,1.53
2018-02-21T05:09:35.931Z,1.57
2018-02-21T05:10:45.916Z,1.49
2018-02-21T05:11:55.370Z,1.5
2018-02-21T05:13:05.092Z,1.49
2018-02-21T05:14:14.281Z,1.49
2018-02-21T05:15:23.997Z,1.5
2018-02-21T05:16:33.748Z,1.47
2018-02-21T05:17:43.507Z,1.39
2018-02-21T05:18:53.225Z,1.43
2018-02-21T05:20:02.675Z,1.35
2018-02-21T05:21:12.865Z,1.26
2018-02-21T05:22:22.589Z,1.38
2018-02-21T05:23:32.309Z,1.2
2018-02-21T05:24:41.497Z,1.26
2018-02-21T05:25:51.484Z,1.18
2018-02-21T05:27:01.208Z,1.06
2018-02-21T05:28:10.661Z,1.02
2018-02-21T05:29:20.383Z,1.04
2018-02-21T05:30:29.835Z,1
2018-02-21T05:31:39.020Z,1
2018-02-21T05:32:49.004Z,0.9
2018-02-21T05:33:58.462Z,0.84
2018-02-21T05:35:08.181Z,0.8
2018-02-21T05:36:18.164Z,0.88
2018-02-21T05:37:27.620Z,0.72
2018-02-21T05:38:36.740Z,0.82
2018-02-21T05:39:46.460Z,0.74
2018-02-21T05:40:55.910Z,0.71
2018-02-21T05:42:05.095Z,0.74
2018-02-21T05:43:15.084Z,0.7
2018-02-21T05:44:24.534Z,0.59
2018-02-21T05:45:34.256Z,0.62
2018-02-21T05:46:44.239Z,0.6
2018-02-21T05:47:53.968Z,0.6
2018-02-21T05:49:03.684Z,0.57
2018-02-21T05:50:13.136Z,0.59
2018-02-21T05:51:23.129Z,0.6
2018-02-21T05:52:33.119Z,0.59
2018-02-21T05:53:42.570Z,0.56
2018-02-21T05:54:52.556Z,0.62
2018-02-21T05:56:02.548Z,0.52
2018-02-21T05:57:11.784Z,0.48
2018-02-21T05:58:21.790Z,0.53
2018-02-21T05:59:31.511Z,0.48
2018-02-21T06:00:41.256Z,0.48
2018-02-21T06:01:50.760Z,0.4
2018-02-21T06:03:00.878Z,0.41
2018-02-21T06:04:10.875Z,0.41
2018-02-21T06:05:20.641Z,0.33
2018-02-21T06:06:30.102Z,0.37
2018-02-21T06:07:40.117Z,0.4
2018-02-21T06:08:49.845Z,0.48
2018-02-21T06:09:59.573Z,0.37
2018-02-21T06:11:08.760Z,0.38
2018-02-21T06:12:18.758Z,0.33
2018-02-21T06:13:28.476Z,0.33
2018-02-21T06:14:37.928Z,0.41
2018-02-21T06:15:47.912Z,0.34
2018-02-21T06:16:57.367Z,0.34
2018-02-21T06:18:06.843Z,0.34
2018-02-21T06:19:16.038Z,0.22
2018-02-21T06:20:26.031Z,0.28
2018-02-21T06:21:36.015Z,0.33
2018-02-21T06:22:45.468Z,0.22
2018-02-21T06:23:54.656Z,0.22
2018-02-21T06:25:04.700Z,0.26
2018-02-21T06:26:14.465Z,0.2
2018-02-21T06:27:23.921Z,0.16
2018-02-21T06:28:33.403Z,0.12
2018-02-21T06:29:43.617Z,0.23
2018-02-21T06:30:53.070Z,0.1
2018-02-21T06:32:02.783Z,0.1
2018-02-21T06:33:12.533Z,0.15
2018-02-21T06:34:22.522Z,0.15
2018-02-21T06:35:31.721Z,0.13
2018-02-21T06:36:41.181Z,0.17
2018-02-21T06:37:50.903Z,0.13
2018-02-21T06:39:00.891Z,0.16
2018-02-21T06:40:10.612Z,0.12
2018-02-21T06:41:19.806Z,0.1
2018-02-21T06:42:29.825Z,0.13
2018-02-21T06:43:39.067Z,0.1
2018-02-21T06:44:48.782Z,0.16
2018-02-21T06:45:58.522Z,0.07
2018-02-21T06:47:07.974Z,0.16
2018-02-21T06:48:17.425Z,0.12
2018-02-21T06:49:27.210Z,0.12
2018-02-21T06:50:36.992Z,0.12
2018-02-21T06:51:46.445Z,0.13
2018-02-21T06:52:55.625Z,0.15
2018-02-21T06:54:05.075Z,0.15
2018-02-21T06:55:14.528Z,0.12
2018-02-21T06:56:23.978Z,0.12
2018-02-21T06:57:33.698Z,0.12
2018-02-21T06:58:43.154Z,0.07
2018-02-21T06:59:53.141Z,0.07
2018-02-21T07:01:02.942Z,0.1
2018-02-21T07:02:13.235Z,0.13
2018-02-21T07:03:23.096Z,0.12
2018-02-21T07:04:32.835Z,0.07
2018-02-21T07:05:42.285Z,0.08
2018-02-21T07:06:52.007Z,0.12
2018-02-21T07:08:01.458Z,0.15
2018-02-21T07:09:11.190Z,0.13
2018-02-21T07:10:20.920Z,0.07
2018-02-21T07:11:30.376Z,0.16
2018-02-21T07:12:40.094Z,0.16
2018-02-21T07:13:49.285Z,0.08
2018-02-21T07:14:59.004Z,0.15
2018-02-21T07:16:08.189Z,0.17
2018-02-21T07:17:18.194Z,0.13
2018-02-21T07:18:27.917Z,0.17
2018-02-21T07:19:37.933Z,0.16
2018-02-21T07:20:47.906Z,0.19
2018-02-21T07:21:57.094Z,0.17
2018-02-21T07:23:06.544Z,0.08
2018-02-21T07:24:15.994Z,0.15
2018-02-21T07:25:25.464Z,0.25
2018-02-21T07:26:35.444Z,0.25
2018-02-21T07:27:44.893Z,0.35
2018-02-21T07:28:54.627Z,0.34
2018-02-21T07:30:04.625Z,0.31
2018-02-21T07:31:13.814Z,0.35
2018-02-21T07:32:23.279Z,0.37
2018-02-21T07:33:32.997Z,0.35
2018-02-21T07:34:42.991Z,0.45
2018-02-21T07:35:52.226Z,0.44
2018-02-21T07:37:01.746Z,0.49
2018-02-21T07:38:11.557Z,0.49
2018-02-21T07:39:20.805Z,0.51
2018-02-21T07:40:30.254Z,0.59
2018-02-21T07:41:40.244Z,0.57
2018-02-21T07:42:49.473Z,0.62
2018-02-21T07:43:59.207Z,0.63
2018-02-21T07:45:08.943Z,0.63
2018-02-21T07:46:18.736Z,0.63
2018-02-21T07:47:28.728Z,0.64
2018-02-21T07:48:38.649Z,0.7
2018-02-21T07:49:48.430Z,0.7
2018-02-21T07:50:58.418Z,0.7
2018-02-21T07:52:07.373Z,0.71
2018-02-21T07:53:17.363Z,0.72
2018-02-21T07:54:26.892Z,0.74
2018-02-21T07:55:36.345Z,0.74
2018-02-21T07:56:46.079Z,0.74
2018-02-21T07:57:55.806Z,0.74
2018-02-21T07:59:05.271Z,0.75
2018-02-21T08:00:15.008Z,0.84
2018-02-21T08:01:24.464Z,0.82
2018-02-21T08:02:33.924Z,0.84
2018-02-21T08:03:43.378Z,0.89
2018-02-21T08:04:53.359Z,0.89
2018-02-21T08:06:02.550Z,0.86
2018-02-21T08:07:12.311Z,0.93
2018-02-21T08:08:21.239Z,0.96
2018-02-21T08:09:30.958Z,0.99
2018-02-21T08:10:40.417Z,1
2018-02-21T08:11:50.134Z,1.08
2018-02-21T08:13:00.130Z,1.06
2018-02-21T08:14:09.607Z,1.07
2018-02-21T08:15:19.385Z,1.21
2018-02-21T08:16:29.458Z,1.24
2018-02-21T08:17:38.920Z,1.32
2018-02-21T08:18:48.648Z,1.21
2018-02-21T08:19:57.832Z,1.26
2018-02-21T08:21:07.290Z,1.32
2018-02-21T08:22:16.739Z,1.32
2018-02-21T08:23:26.724Z,1.29
2018-02-21T08:24:36.463Z,1.29
2018-02-21T08:25:45.912Z,1.29
2018-02-21T08:26:55.895Z,1.26
2018-02-21T08:28:05.659Z,1.29
2018-02-21T08:29:15.380Z,1.43
2018-02-21T08:30:25.187Z,1.46
2018-02-21T08:31:34.903Z,1.44
2018-02-21T08:32:44.616Z,1.42
2018-02-21T08:33:54.332Z,1.49
2018-02-21T08:35:03.541Z,1.46
2018-02-21T08:36:13.530Z,1.49
2018-02-21T08:37:23.257Z,1.52
2018-02-21T08:38:33.299Z,1.57
2018-02-21T08:39:43.029Z,1.63
2018-02-21T08:40:52.479Z,1.68
2018-02-21T08:42:01.668Z,1.63
2018-02-21T08:43:10.856Z,1.64
2018-02-21T08:44:20.857Z,1.68
2018-02-21T08:45:30.858Z,1.72
2018-02-21T08:46:40.046Z,1.72
2018-02-21T08:47:49.770Z,1.85
2018-02-21T08:48:59.509Z,1.81
2018-02-21T08:50:09.549Z,1.88
2018-02-21T08:51:19.317Z,1.72
2018-02-21T08:52:28.765Z,1.85
2018-02-21T08:53:38.490Z,1.79
2018-02-21T08:54:48.499Z,1.83
2018-02-21T08:55:57.950Z,1.81
2018-02-21T08:57:07.666Z,1.77
2018-02-21T08:58:17.445Z,1.79
2018-02-21T08:59:27.122Z,1.79
2018-02-21T09:00:36.838Z,1.86
2018-02-21T09:01:46.860Z,1.88
2018-02-21T09:02:56.346Z,1.83
2018-02-21T09:04:06.112Z,1.86
2018-02-21T09:05:15.840Z,1.93
2018-02-21T09:06:25.361Z,1.85
2018-02-21T09:07:35.138Z,1.95
2018-02-21T09:08:44.339Z,1.93
2018-02-21T09:09:54.172Z,2.07
2018-02-21T09:11:03.923Z,2.05
2018-02-21T09:12:13.111Z,2.01
2018-02-21T09:13:23.119Z,2.09
2018-02-21T09:14:32.604Z,2.05
2018-02-21T09:15:42.327Z,2.08
2018-02-21T09:16:51.815Z,2.18
2018-02-21T09:18:01.011Z,2.19
2018-02-21T09:19:10.460Z,2.15
2018-02-21T09:20:19.988Z,2.22
2018-02-21T09:21:29.198Z,2.26
2018-02-21T09:22:38.678Z,2.26
2018-02-21T09:23:48.429Z,2.38
2018-02-21T09:24:58.204Z,2.43
2018-02-21T09:26:08.219Z,2.43
2018-02-21T09:27:17.159Z,2.48
2018-02-21T09:28:26.889Z,2.47
2018-02-21T09:29:36.881Z,2.51
2018-02-21T09:30:46.068Z,2.51
2018-02-21T09:31:56.052Z,2.63
2018-02-21T09:33:05.519Z,2.55
2018-02-21T09:34:14.989Z,2.63
2018-02-21T09:35:24.446Z,2.71
2018-02-21T09:36:33.639Z,2.68
2018-02-21T09:37:43.111Z,2.79
2018-02-21T09:38:52.810Z,2.8
2018-02-21T09:40:02.089Z,2.79
2018-02-21T09:41:10.739Z,2.79
2018-02-21T09:42:20.478Z,2.8
2018-02-21T09:43:30.475Z,2.8
2018-02-21T09:44:40.480Z,2.9
2018-02-21T09:45:50.245Z,2.87
2018-02-21T09:47:00.043Z,2.95
2018-02-21T09:48:09.782Z,2.95
2018-02-21T09:49:19.261Z,2.89
2018-02-21T09:50:29.248Z,2.84
2018-02-21T09:51:38.713Z,2.98
2018-02-21T09:52:48.489Z,2.98
2018-02-21T09:53:58.486Z,3.01
2018-02-21T09:55:08.335Z,3.08
2018-02-21T09:56:17.799Z,3.12
2018-02-21T09:57:27.251Z,3.1
2018-02-21T09:58:37.062Z,3.2
2018-02-21T09:59:47.098Z,3.22
2018-02-21T10:00:56.571Z,3.3
2018-02-21T10:02:06.798Z,3.28
2018-02-21T10:03:16.787Z,3.35
2018-02-21T10:04:26.555Z,3.41
2018-02-21T10:05:36.031Z,3.5
2018-02-21T10:06:44.951Z,3.5
2018-02-21T10:07:54.954Z,3.42
2018-02-21T10:09:04.943Z,3.56
2018-02-21T10:10:14.398Z,3.63
2018-02-21T10:11:24.116Z,3.54
2018-02-21T10:12:33.668Z,3.64
2018-02-21T10:13:43.668Z,3.64
2018-02-21T10:14:53.389Z,3.72
2018-02-21T10:16:02.579Z,3.74
2018-02-21T10:17:12.298Z,3.84
2018-02-21T10:18:22.285Z,3.86
2018-02-21T10:19:31.468Z,3.89
2018-02-21T10:20:41.191Z,4
2018-02-21T10:21:51.225Z,3.93
2018-02-21T10:23:01.029Z,3.99
2018-02-21T10:24:11.017Z,4.06
2018-02-21T10:25:20.738Z,4.14
2018-02-21T10:26:30.194Z,4.07
2018-02-21T10:27:39.912Z,4.18
2018-02-21T10:28:49.416Z,4.16
2018-02-21T10:29:58.870Z,4.24
2018-02-21T10:31:08.334Z,4.2
2018-02-21T10:32:17.542Z,4.26
2018-02-21T10:33:27.538Z,4.31
2018-02-21T10:34:37.265Z,4.31
2018-02-21T10:35:46.985Z,4.42
2018-02-21T10:36:56.739Z,4.44
2018-02-21T10:38:06.469Z,4.43
2018-02-21T10:39:16.388Z,4.5
2018-02-21T10:40:26.114Z,4.56
2018-02-21T10:41:35.978Z,4.64
2018-02-21T10:42:44.900Z,4.59
2018-02-21T10:43:54.634Z,4.68
2018-02-21T10:45:04.400Z,4.68
2018-02-21T10:46:14.129Z,4.69
2018-02-21T10:47:23.052Z,4.71
2018-02-21T10:48:32.816Z,4.86
2018-02-21T10:49:42.826Z,4.86
2018-02-21T10:50:52.824Z,4.94
2018-02-21T10:52:02.854Z,4.93
2018-02-21T10:53:12.064Z,5.05
2018-02-21T10:54:21.810Z,5.09
2018-02-21T10:55:31.562Z,5.12
2018-02-21T10:56:41.266Z,5.19
2018-02-21T10:57:51.091Z,5.2
2018-02-21T10:59:00.283Z,5.24
2018-02-21T11:00:10.019Z,5.23
2018-02-21T11:01:19.545Z,5.32
2018-02-21T11:02:29.108Z,5.35
2018-02-21T11:03:38.874Z,5.41
2018-02-21T11:04:48.354Z,5.42
2018-02-21T11:05:57.813Z,5.48
2018-02-21T11:07:07.869Z,5.59
2018-02-21T11:08:17.604Z,5.6
2018-02-21T11:09:27.375Z,5.62
2018-02-21T11:10:37.120Z,5.67
2018-02-21T11:11:46.601Z,5.66
2018-02-21T11:12:56.342Z,5.74
2018-02-21T11:14:06.079Z,5.84
2018-02-21T11:15:15.808Z,5.77
2018-02-21T11:16:25.274Z,5.9
2018-02-21T11:17:34.784Z,5.85
2018-02-21T11:18:44.781Z,5.87
2018-02-21T11:19:54.517Z,5.96
2018-02-21T11:21:03.975Z,5.99
2018-02-21T11:22:13.704Z,5.99
2018-02-21T11:23:23.582Z,6.02
2018-02-21T11:24:33.753Z,6.05
2018-02-21T11:25:43.476Z,6.03
2018-02-21T11:26:52.669Z,6.17
2018-02-21T11:28:02.440Z,6.14
2018-02-21T11:29:11.640Z,6.2
2018-02-21T11:30:21.642Z,6.14
2018-02-21T11:31:31.104Z,6.13
2018-02-21T11:32:41.103Z,6.16
2018-02-21T11:33:50.822Z,6.14
2018-02-21T11:35:00.282Z,6.16
2018-02-21T11:36:10.007Z,6.19
2018-02-21T11:37:19.205Z,6.16
2018-02-21T11:38:28.666Z,6.33
2018-02-21T11:39:38.655Z,6.32
2018-02-21T11:40:48.125Z,6.33
2018-02-21T11:41:57.847Z,6.21
2018-02-21T11:43:07.061Z,6.19
2018-02-21T11:44:17.055Z,6.3
2018-02-21T11:45:27.048Z,6.32
2018-02-21T11:46:36.273Z,6.33
2018-02-21T11:47:45.798Z,6.4
2018-02-21T11:48:55.580Z,6.42
2018-02-21T11:50:04.824Z,6.5
2018-02-21T11:51:14.548Z,6.48
2018-02-21T11:52:24.296Z,6.45
2018-02-21T11:53:33.758Z,6.53
2018-02-21T11:54:43.248Z,6.57
2018-02-21T11:55:53.239Z,6.57
2018-02-21T11:57:02.962Z,6.61
2018-02-21T11:58:11.894Z,6.61
2018-02-21T11:59:21.628Z,6.61
2018-02-21T12:00:31.087Z,6.63
2018-02-21T12:01:40.542Z,6.68
2018-02-21T12:02:50.273Z,6.75
2018-02-21T12:03:59.836Z,6.76
2018-02-21T12:05:09.831Z,6.75
2018-02-21T12:06:19.309Z,6.72
2018-02-21T12:07:29.027Z,6.73
2018-02-21T12:08:39.034Z,6.82
2018-02-21T12:09:48.788Z,6.86
2018-02-21T12:10:58.775Z,6.94
2018-02-21T12:12:08.501Z,6.89
2018-02-21T12:13:17.160Z,7
2018-02-21T12:14:26.764Z,7.07
2018-02-21T12:15:36.333Z,7.01
2018-02-21T12:16:45.588Z,7.08
2018-02-21T12:17:55.337Z,7.07
2018-02-21T12:19:05.072Z,7.09
2018-02-21T12:20:14.533Z,7.01
2018-02-21T12:21:24.535Z,6.96
2018-02-21T12:22:34.075Z,7.07
2018-02-21T12:23:44.119Z,7.11
2018-02-21T12:24:53.577Z,7.15
2018-02-21T12:26:03.633Z,7.09
2018-02-21T12:27:12.825Z,7.08
2018-02-21T12:28:22.634Z,7.11
2018-02-21T12:29:32.471Z,7.08
2018-02-21T12:30:42.527Z,7.15
2018-02-21T12:31:52.286Z,7.21
2018-02-21T12:33:01.748Z,7.29
2018-02-21T12:34:11.256Z,7.37
2018-02-21T12:35:21.118Z,7.32
2018-02-21T12:36:30.924Z,7.33
2018-02-21T12:37:40.654Z,7.37
2018-02-21T12:38:50.651Z,7.45
2018-02-21T12:40:00.405Z,7.5
2018-02-21T12:41:10.423Z,7.5
2018-02-21T12:42:19.616Z,7.47
2018-02-21T12:43:29.083Z,7.5
2018-02-21T12:44:39.116Z,7.55
2018-02-21T12:45:48.842Z,7.55
2018-02-21T12:46:58.580Z,7.58
2018-02-21T12:48:08.040Z,7.66
2018-02-21T12:49:18.041Z,7.69
2018-02-21T12:50:27.497Z,7.57
2018-02-21T12:51:37.489Z,7.7
2018-02-21T12:52:47.490Z,7.67
2018-02-21T12:53:57.213Z,7.71
2018-02-21T12:55:07.202Z,7.67
2018-02-21T12:56:16.398Z,7.69
2018-02-21T12:57:25.856Z,7.74
2018-02-21T12:58:35.853Z,7.73
2018-02-21T12:59:45.590Z,7.62
2018-02-21T13:00:55.054Z,7.55
2018-02-21T13:02:04.515Z,7.63
2018-02-21T13:03:13.981Z,7.69
2018-02-21T13:04:23.983Z,7.67
2018-02-21T13:05:33.715Z,7.77
2018-02-21T13:06:43.180Z,7.76
2018-02-21T13:07:53.170Z,7.81
2018-02-21T13:09:02.683Z,7.74
2018-02-21T13:10:12.149Z,7.85
2018-02-21T13:11:21.612Z,7.91
2018-02-21T13:12:31.075Z,7.85
2018-02-21T13:13:40.544Z,7.86
2018-02-21T13:14:49.739Z,7.86
2018-02-21T13:15:59.469Z,7.88
2018-02-21T13:17:09.538Z,7.82
2018-02-21T13:18:19.094Z,7.79
2018-02-21T13:19:28.652Z,7.76
2018-02-21T13:20:38.434Z,7.82
2018-02-21T13:21:48.163Z,7.84
2018-02-21T13:22:58.183Z,7.85
2018-02-21T13:24:08.192Z,7.84
2018-02-21T13:25:17.123Z,7.84
2018-02-21T13:26:26.139Z,7.94
2018-02-21T13:27:35.893Z,7.99
2018-02-21T13:28:45.623Z,8.03
2018-02-21T13:29:55.124Z,8
2018-02-21T13:31:04.350Z,8.04
2018-02-21T13:32:13.816Z,8.03
2018-02-21T13:33:23.550Z,8.06
2018-02-21T13:34:33.283Z,8.13
2018-02-21T13:35:43.145Z,8.22
2018-02-21T13:36:53.181Z,8.13
2018-02-21T13:38:02.396Z,8.17
2018-02-21T13:39:11.940Z,8.25
2018-02-21T13:40:21.700Z,8.29
2018-02-21T13:41:31.181Z,8.27
2018-02-21T13:42:40.685Z,8.25
2018-02-21T13:43:50.414Z,8.28
2018-02-21T13:45:00.145Z,8.29
2018-02-21T13:46:09.342Z,8.36
2018-02-21T13:47:19.124Z,8.29
2018-02-21T13:48:28.636Z,8.24
2018-02-21T13:49:38.420Z,8.25
2018-02-21T13:50:48.068Z,8.37
2018-02-21T13:51:58.252Z,8.37
2018-02-21T13:53:07.844Z,8.34
2018-02-21T13:54:17.994Z,8.34
2018-02-21T13:55:28.102Z,8.37
2018-02-21T13:56:38.745Z,8.34
2018-02-21T13:57:48.254Z,8.32
2018-02-21T13:58:58.399Z,8.42
2018-02-21T14:00:07.736Z,8.36
2018-02-21T14:01:17.263Z,8.37
2018-02-21T14:02:26.999Z,8.34
2018-02-21T14:03:36.729Z,8.34
2018-02-21T14:04:46.225Z,8.34
2018-02-21T14:05:55.992Z,8.42
2018-02-21T14:07:05.496Z,8.47
2018-02-21T14:08:15.277Z,8.39
2018-02-21T14:09:24.486Z,8.45
2018-02-21T14:10:34.004Z,8.5
2018-02-21T14:11:43.737Z,8.47
2018-02-21T14:12:53.469Z,8.5
2018-02-21T14:14:02.673Z,8.42
2018-02-21T14:15:12.685Z,8.47
2018-02-21T14:16:22.711Z,8.49
2018-02-21T14:17:32.759Z,8.49
2018-02-21T14:18:42.335Z,8.45
2018-02-21T14:19:52.100Z,8.49
2018-02-21T14:21:01.592Z,8.34
2018-02-21T14:22:11.614Z,8.37
2018-02-21T14:23:21.626Z,8.37
2018-02-21T14:24:30.929Z,8.34
2018-02-21T14:25:40.976Z,8.46
2018-02-21T14:26:50.524Z,8.55
2018-02-21T14:28:00.259Z,8.6
2018-02-21T14:29:09.917Z,8.63
2018-02-21T14:30:19.449Z,8.6
2018-02-21T14:31:29.214Z,8.58
2018-02-21T14:32:38.687Z,8.57
2018-02-21T14:33:48.143Z,8.6
2018-02-21T14:34:58.136Z,8.61
2018-02-21T14:36:07.352Z,8.57
2018-02-21T14:37:17.111Z,8.6
2018-02-21T14:38:26.574Z,8.61
2018-02-21T14:39:35.498Z,8.61
2018-02-21T14:40:44.998Z,8.65
2018-02-21T14:41:54.527Z,8.57
2018-02-21T14:43:03.985Z,8.58
2018-02-21T14:44:13.470Z,8.57
2018-02-21T14:45:23.009Z,8.57
2018-02-21T14:46:32.495Z,8.65
2018-02-21T14:47:42.221Z,8.61
2018-02-21T14:48:51.717Z,8.58
2018-02-21T14:50:01.484Z,8.58
2018-02-21T14:51:11.226Z,8.67
2018-02-21T14:52:20.972Z,8.64
2018-02-21T14:53:30.984Z,8.67
2018-02-21T14:54:40.725Z,8.7
2018-02-21T14:55:50.482Z,8.67
2018-02-21T14:56:59.978Z,8.73
2018-02-21T14:58:09.501Z,8.7
2018-02-21T14:59:18.968Z,8.67
2018-02-21T15:00:28.714Z,8.64
2018-02-21T15:01:38.451Z,8.64
2018-02-21T15:02:48.544Z,8.57
2018-02-21T15:03:58.273Z,8.65
2018-02-21T15:05:07.756Z,8.5
2018-02-21T15:06:17.494Z,8.55
2018-02-21T15:07:27.260Z,8.61
2018-02-21T15:08:36.994Z,8.55
2018-02-21T15:09:46.813Z,8.6
2018-02-21T15:10:56.654Z,8.57
2018-02-21T15:12:05.850Z,8.57
2018-02-21T15:13:15.391Z,8.57
2018-02-21T15:14:24.918Z,8.6
2018-02-21T15:15:34.685Z,8.57
2018-02-21T15:16:44.207Z,8.54
2018-02-21T15:17:53.958Z,8.61
2018-02-21T15:19:03.705Z,8.46
2018-02-21T15:20:13.738Z,8.37
2018-02-21T15:21:23.837Z,8.39
2018-02-21T15:22:33.344Z,8.34
2018-02-21T15:23:42.809Z,8.42
2018-02-21T15:24:52.545Z,8.36
2018-02-21T15:26:02.345Z,8.4
2018-02-21T15:27:11.814Z,8.43
2018-02-21T15:28:21.540Z,8.37
2018-02-21T15:29:31.001Z,8.34
2018-02-21T15:30:40.198Z,8.34
2018-02-21T15:31:49.406Z,8.2